Airport View

Enter AWOS ICAO identifier for current METAR.

ex. KFNL

KMIV 262254Z AUTO 26008KT 10SM OVC050 07/M02 A2984 RMK AO2 SLP103 T00671017

26 Jan 2020 23:37

Frequency: 119.6

Phone: 856-327-3455

Other Area AWOS: KWWD - KDOV - N81 - KACY

TAF KMIV 261721Z 2618/2718 28008G16KT P6SM BKN040 FM262200 28004KT P6SM BKN040 FM270200 27004KT P6SM SCT040 FM270800 26006KT P6SM SCT040 BKN080 FM271600 28010G18KT P6SM BKN050